createdAt,value
2018-06-22T00:01:48.075Z,8.80
2018-06-22T00:04:16.713Z,8.60
2018-06-22T00:06:45.403Z,8.67
2018-06-22T00:09:15.757Z,8.50
2018-06-22T00:11:45.610Z,8.90
2018-06-22T00:14:15.384Z,8.53
2018-06-22T00:16:44.571Z,8.10
2018-06-22T00:19:13.546Z,8.40
2018-06-22T00:21:42.129Z,7.90
2018-06-22T00:24:11.054Z,8.63
2018-06-22T00:26:39.671Z,8.77
2018-06-22T00:29:08.423Z,8.47
2018-06-22T00:31:37.016Z,8.53
2018-06-22T00:34:06.636Z,8.40
2018-06-22T00:36:36.251Z,8.50
2018-06-22T00:39:06.626Z,9.53
2018-06-22T00:41:35.557Z,8.57
2018-06-22T00:44:04.211Z,8.33
2018-06-22T00:46:33.029Z,8.10
2018-06-22T00:49:01.776Z,8.30
2018-06-22T00:51:30.434Z,8.43
2018-06-22T00:54:12.182Z,8.20
2018-06-22T00:56:40.776Z,8.50
2018-06-22T00:59:09.890Z,8.50
2018-06-22T01:01:39.157Z,8.50
2018-06-22T01:04:08.552Z,10.27
2018-06-22T01:06:37.513Z,8.73
2018-06-22T01:09:09.870Z,8.93
2018-06-22T01:11:38.556Z,8.80
2018-06-22T01:14:08.011Z,8.40
2018-06-22T01:16:37.020Z,9.20
2018-06-22T01:19:07.074Z,8.60
2018-06-22T01:21:35.713Z,8.10
2018-06-22T01:24:04.614Z,8.50
2018-06-22T01:26:33.756Z,8.20
2018-06-22T01:29:07.636Z,8.60
2018-06-22T01:31:36.368Z,8.93
2018-06-22T01:34:05.121Z,8.20
2018-06-22T01:36:33.820Z,8.90
2018-06-22T01:39:02.519Z,9.03
2018-06-22T01:41:31.138Z,8.60
2018-06-22T01:43:59.780Z,9.37
2018-06-22T01:46:28.370Z,8.47
2018-06-22T01:48:57.330Z,8.83
2018-06-22T01:51:26.171Z,8.73
2018-06-22T01:53:55.392Z,9.03
2018-06-22T01:56:23.948Z,9.97
2018-06-22T01:58:53.415Z,9.30
2018-06-22T02:01:22.348Z,8.90
2018-06-22T02:03:51.260Z,9.03
2018-06-22T02:06:19.872Z,8.93
2018-06-22T02:08:48.515Z,8.40
2018-06-22T02:11:17.390Z,8.47
2018-06-22T02:13:46.018Z,8.70
2018-06-22T02:16:15.446Z,8.73
2018-06-22T02:18:44.089Z,9.27
2018-06-22T02:21:12.689Z,9.03
2018-06-22T02:23:41.906Z,9.00
2018-06-22T02:26:10.794Z,8.70
2018-06-22T02:28:39.536Z,9.27
2018-06-22T02:31:08.452Z,9.20
2018-06-22T02:33:37.148Z,8.80
2018-06-22T02:36:05.769Z,9.13
2018-06-22T02:38:34.430Z,8.97
2018-06-22T02:41:07.171Z,8.83
2018-06-22T02:43:36.540Z,8.60
2018-06-22T02:46:05.284Z,8.70
2018-06-22T02:48:34.224Z,8.70
2018-06-22T02:51:02.873Z,8.60
2018-06-22T02:53:31.511Z,9.13
2018-06-22T02:56:01.505Z,8.57
2018-06-22T02:58:31.680Z,8.73
2018-06-22T03:01:00.803Z,8.40
2018-06-22T03:03:29.428Z,8.60
2018-06-22T03:05:58.101Z,9.10
2018-06-22T03:08:26.980Z,8.70
2018-06-22T03:10:56.178Z,8.70
2018-06-22T03:13:24.822Z,8.90
2018-06-22T03:15:53.452Z,8.80
2018-06-22T03:18:22.343Z,9.50
2018-06-22T03:20:50.963Z,9.13
2018-06-22T03:23:19.978Z,8.43
2018-06-22T03:25:48.872Z,8.63
2018-06-22T03:28:17.802Z,8.70
2018-06-22T03:30:46.752Z,8.90
2018-06-22T03:33:15.652Z,8.80
2018-06-22T03:35:44.573Z,8.97
2018-06-22T03:38:13.248Z,8.10
2018-06-22T03:40:41.894Z,8.20
2018-06-22T03:43:10.528Z,8.33
2018-06-22T03:45:39.462Z,8.80
2018-06-22T03:48:08.082Z,8.40
2018-06-22T03:50:36.668Z,8.63
2018-06-22T03:53:05.279Z,9.50
2018-06-22T03:55:33.964Z,8.73
2018-06-22T03:58:02.683Z,8.73
2018-06-22T04:00:31.325Z,8.63
2018-06-22T04:02:59.967Z,8.37
2018-06-22T04:05:28.679Z,8.50
2018-06-22T04:07:57.305Z,8.80
2018-06-22T04:10:25.943Z,8.60
2018-06-22T04:12:54.585Z,8.60
2018-06-22T04:15:23.484Z,9.03
2018-06-22T04:17:53.967Z,8.10
2018-06-22T04:20:23.743Z,9.17
2018-06-22T04:22:53.244Z,8.00
2018-06-22T04:25:23.735Z,8.93
2018-06-22T04:27:53.000Z,8.57
2018-06-22T04:30:21.633Z,8.70
2018-06-22T04:32:50.980Z,9.10
2018-06-22T04:35:19.644Z,9.80
2018-06-22T04:37:48.542Z,9.00
2018-06-22T04:40:17.423Z,8.83
2018-06-22T04:42:46.050Z,9.17
2018-06-22T04:45:15.577Z,9.10
2018-06-22T04:47:44.632Z,8.53
2018-06-22T04:50:13.533Z,9.70
2018-06-22T04:52:42.197Z,8.07
2018-06-22T04:55:11.307Z,8.90
2018-06-22T04:57:40.581Z,8.83
2018-06-22T05:00:09.911Z,8.77
2018-06-22T05:02:38.504Z,8.37
2018-06-22T05:05:07.125Z,8.30
2018-06-22T05:07:35.763Z,8.57
2018-06-22T05:10:04.953Z,8.83
2018-06-22T05:12:33.951Z,8.10
2018-06-22T05:15:02.981Z,9.17
2018-06-22T05:17:33.408Z,8.50
2018-06-22T05:20:02.107Z,8.40
2018-06-22T05:22:30.788Z,8.30
2018-06-22T05:24:59.555Z,8.33
2018-06-22T05:27:28.234Z,9.00
2018-06-22T05:29:56.852Z,8.33
2018-06-22T05:32:25.506Z,8.53
2018-06-22T05:34:54.504Z,11.90
2018-06-22T05:37:24.679Z,8.17
2018-06-22T05:39:53.345Z,8.73
2018-06-22T05:42:21.983Z,8.57
2018-06-22T05:44:50.943Z,8.50
2018-06-22T05:47:19.656Z,8.30
2018-06-22T05:49:48.800Z,8.33
2018-06-22T05:52:18.269Z,8.40
2018-06-22T05:54:47.462Z,8.70
2018-06-22T05:57:17.326Z,8.70
2018-06-22T05:59:46.771Z,8.27
2018-06-22T06:02:15.471Z,8.20
2018-06-22T06:04:44.451Z,8.43
2018-06-22T06:07:13.640Z,8.30
2018-06-22T06:09:42.252Z,8.23
2018-06-22T06:12:11.133Z,8.07
2018-06-22T06:14:41.425Z,8.23
2018-06-22T06:17:10.817Z,9.20
2018-06-22T06:19:39.684Z,8.07
2018-06-22T06:22:08.749Z,8.80
2018-06-22T06:24:37.526Z,8.53
2018-06-22T06:27:06.603Z,9.00
2018-06-22T06:29:35.237Z,8.47
2018-06-22T06:32:03.897Z,8.80
2018-06-22T06:34:32.517Z,8.37
2018-06-22T06:37:02.314Z,8.90
2018-06-22T06:39:31.151Z,8.60
2018-06-22T06:41:59.765Z,8.83
2018-06-22T06:44:28.929Z,8.63
2018-06-22T06:46:57.533Z,9.17
2018-06-22T06:49:26.404Z,8.40
2018-06-22T06:51:55.006Z,8.50
2018-06-22T06:54:23.679Z,8.50
2018-06-22T06:56:52.627Z,9.23
2018-06-22T06:59:21.253Z,9.50
2018-06-22T07:01:50.188Z,9.07
2018-06-22T07:04:18.859Z,9.23
2018-06-22T07:06:47.581Z,8.87
2018-06-22T07:09:16.394Z,8.90
2018-06-22T07:11:45.137Z,8.80
2018-06-22T07:14:13.768Z,8.40
2018-06-22T07:16:42.429Z,8.63
2018-06-22T07:19:11.193Z,9.10
2018-06-22T07:21:40.317Z,8.63
2018-06-22T07:24:09.190Z,9.80
2018-06-22T07:26:38.145Z,8.70
2018-06-22T07:29:06.832Z,9.60
2018-06-22T07:31:35.528Z,8.30
2018-06-22T07:34:04.138Z,8.80
2018-06-22T07:36:32.795Z,8.30
2018-06-22T07:39:01.946Z,8.67
2018-06-22T07:41:30.706Z,8.47
2018-06-22T07:43:59.509Z,8.97
2018-06-22T07:46:28.800Z,8.97
2018-06-22T07:49:00.466Z,8.40
2018-06-22T07:51:29.482Z,8.50
2018-06-22T07:53:58.470Z,9.40
2018-06-22T07:56:27.728Z,8.90
2018-06-22T07:58:56.960Z,8.83
2018-06-22T08:01:25.945Z,8.23
2018-06-22T08:03:54.857Z,9.03
2018-06-22T08:06:24.201Z,8.87
2018-06-22T08:08:53.050Z,8.77
2018-06-22T08:11:21.911Z,8.53
2018-06-22T08:13:50.537Z,8.10
2018-06-22T08:16:19.370Z,8.37
2018-06-22T08:18:48.369Z,8.30
2018-06-22T08:21:17.082Z,8.70
2018-06-22T08:23:45.796Z,8.70
2018-06-22T08:26:14.451Z,8.13
2018-06-22T08:28:43.196Z,8.30
2018-06-22T08:31:12.401Z,8.40
2018-06-22T08:33:41.000Z,8.37
2018-06-22T08:36:09.668Z,7.90
2018-06-22T08:38:38.271Z,9.00
2018-06-22T08:41:07.706Z,8.60
2018-06-22T08:43:36.614Z,8.10
2018-06-22T08:46:05.392Z,9.00
2018-06-22T08:48:34.206Z,7.90
2018-06-22T08:51:02.842Z,8.47
2018-06-22T08:53:31.463Z,8.03
2018-06-22T08:56:00.130Z,8.10
2018-06-22T08:58:28.858Z,8.17
2018-06-22T09:00:57.881Z,8.17
2018-06-22T09:03:26.549Z,8.47
2018-06-22T09:05:55.420Z,8.40
2018-06-22T09:08:24.227Z,8.30
2018-06-22T09:10:52.944Z,7.73
2018-06-22T09:13:21.706Z,8.83
2018-06-22T09:15:50.676Z,9.03
2018-06-22T09:18:20.006Z,8.27
2018-06-22T09:20:48.669Z,8.40
2018-06-22T09:23:17.420Z,8.07
2018-06-22T09:25:46.153Z,8.20
2018-06-22T09:28:14.766Z,7.87
2018-06-22T09:30:43.421Z,7.60
2018-06-22T09:33:12.157Z,7.70
2018-06-22T09:35:40.829Z,7.50
2018-06-22T09:38:09.451Z,7.70
2018-06-22T09:40:38.232Z,7.30
2018-06-22T09:43:06.868Z,7.90
2018-06-22T09:45:35.925Z,7.30
2018-06-22T09:48:05.008Z,7.53
2018-06-22T09:50:34.341Z,7.47
2018-06-22T09:53:03.012Z,8.00
2018-06-22T09:55:31.664Z,7.73
2018-06-22T09:58:00.271Z,8.43
2018-06-22T10:00:29.182Z,8.40
2018-06-22T10:02:57.957Z,8.10
2018-06-22T10:05:28.974Z,7.63
2018-06-22T10:07:57.996Z,7.90
2018-06-22T10:10:26.631Z,8.03
2018-06-22T10:12:55.345Z,7.80
2018-06-22T10:15:24.236Z,7.53
2018-06-22T10:17:52.898Z,7.77
2018-06-22T10:20:22.173Z,7.60
2018-06-22T10:22:51.145Z,7.90
2018-06-22T10:25:19.742Z,8.30
2018-06-22T10:27:48.390Z,7.80
2018-06-22T10:30:17.037Z,7.90
2018-06-22T10:32:46.023Z,7.80
2018-06-22T10:35:14.667Z,8.50
2018-06-22T10:37:43.272Z,8.43
2018-06-22T10:40:11.953Z,8.43
2018-06-22T10:42:40.710Z,8.90
2018-06-22T10:45:09.733Z,8.03
2018-06-22T10:47:38.407Z,8.30
2018-06-22T10:50:07.855Z,8.97
2018-06-22T10:52:36.785Z,8.57
2018-06-22T10:55:05.468Z,8.70
2018-06-22T10:57:34.579Z,8.40
2018-06-22T11:00:03.548Z,8.63
2018-06-22T11:02:32.390Z,8.33
2018-06-22T11:05:01.070Z,8.40
2018-06-22T11:07:30.330Z,8.40
2018-06-22T11:09:59.574Z,8.47
2018-06-22T11:12:29.171Z,7.80
2018-06-22T11:14:58.230Z,8.00
2018-06-22T11:17:27.582Z,8.90
2018-06-22T11:19:56.941Z,9.20
2018-06-22T11:22:25.678Z,9.03
2018-06-22T11:24:55.112Z,9.73
2018-06-22T11:27:24.489Z,9.33
2018-06-22T11:29:53.272Z,9.17
2018-06-22T11:32:22.262Z,9.10
2018-06-22T11:34:51.278Z,9.00
2018-06-22T11:37:20.079Z,9.63
2018-06-22T11:39:48.802Z,8.90
2018-06-22T11:42:17.460Z,8.60
2018-06-22T11:44:47.049Z,9.40
2018-06-22T11:47:16.773Z,9.23
2018-06-22T11:49:46.383Z,9.10
2018-06-22T11:52:15.430Z,8.60
2018-06-22T11:54:44.190Z,8.60
2018-06-22T11:57:12.824Z,8.30
2018-06-22T11:59:41.851Z,8.30
2018-06-22T12:02:10.518Z,8.60
2018-06-22T12:04:39.338Z,8.60
2018-06-22T12:07:08.397Z,8.40
2018-06-22T12:09:37.321Z,8.20
2018-06-22T12:12:06.004Z,8.60
2018-06-22T12:14:35.057Z,8.50
2018-06-22T12:17:07.803Z,8.63
2018-06-22T12:19:39.949Z,8.33
2018-06-22T12:22:09.259Z,8.33
2018-06-22T12:24:38.088Z,8.37
2018-06-22T12:27:06.756Z,8.30
2018-06-22T12:29:35.824Z,8.37
2018-06-22T12:32:04.704Z,8.00
2018-06-22T12:34:34.591Z,8.27
2018-06-22T12:37:03.513Z,7.63
2018-06-22T12:39:32.322Z,8.50
2018-06-22T12:42:01.014Z,7.90
2018-06-22T12:44:29.664Z,7.67
2018-06-22T12:46:58.411Z,8.23
2018-06-22T12:49:27.080Z,8.33
2018-06-22T12:51:54.867Z,8.10
2018-06-22T12:54:23.535Z,7.77
2018-06-22T12:56:52.412Z,8.30
2018-06-22T12:59:21.113Z,8.10
2018-06-22T13:01:49.879Z,7.77
2018-06-22T13:04:18.639Z,8.10
2018-06-22T13:06:47.933Z,8.10
2018-06-22T13:09:16.635Z,8.10
2018-06-22T13:11:45.276Z,7.60
2018-06-22T13:14:13.942Z,7.97
2018-06-22T13:16:42.641Z,7.20
2018-06-22T13:19:11.273Z,7.67
2018-06-22T13:21:52.080Z,7.43
2018-06-22T13:24:22.248Z,7.43
2018-06-22T13:26:51.399Z,7.50
2018-06-22T13:29:20.295Z,8.10
2018-06-22T13:31:49.587Z,7.67
2018-06-22T13:34:18.561Z,7.53
2018-06-22T13:36:48.114Z,8.03
2018-06-22T13:39:18.222Z,8.30
2018-06-22T13:41:47.205Z,8.17
2018-06-22T13:44:15.822Z,8.00
2018-06-22T13:46:45.016Z,7.70
2018-06-22T13:49:14.352Z,8.00
2018-06-22T13:51:43.382Z,7.90
2018-06-22T13:54:12.127Z,7.50
2018-06-22T13:56:40.868Z,7.60
2018-06-22T13:59:09.821Z,7.43
2018-06-22T14:01:38.945Z,7.37
2018-06-22T14:04:12.859Z,7.90
2018-06-22T14:06:46.833Z,8.00
2018-06-22T14:09:16.421Z,8.63
2018-06-22T14:11:45.122Z,7.73
2018-06-22T14:14:14.122Z,7.80
2018-06-22T14:16:43.272Z,8.37
2018-06-22T14:19:11.943Z,8.90
2018-06-22T14:21:41.249Z,8.50
2018-06-22T14:24:10.208Z,8.00
2018-06-22T14:26:39.243Z,8.20
2018-06-22T14:29:07.938Z,8.23
2018-06-22T14:31:36.868Z,8.27
2018-06-22T14:34:05.663Z,8.17
2018-06-22T14:36:34.337Z,8.20
2018-06-22T14:39:03.049Z,9.20
2018-06-22T14:41:31.742Z,8.73
2018-06-22T14:44:00.463Z,8.30
2018-06-22T14:46:29.155Z,8.47
2018-06-22T14:48:58.879Z,8.53
2018-06-22T14:51:28.322Z,8.63
2018-06-22T14:54:02.197Z,8.20
2018-06-22T14:56:36.898Z,8.40
2018-06-22T14:59:12.208Z,8.10
2018-06-22T15:01:46.356Z,8.67
2018-06-22T15:04:20.789Z,8.00
2018-06-22T15:06:55.218Z,8.40
2018-06-22T15:09:24.375Z,8.10
2018-06-22T15:11:53.398Z,8.60
2018-06-22T15:14:23.257Z,8.30
2018-06-22T15:16:53.070Z,8.23
2018-06-22T15:19:22.124Z,8.70
2018-06-22T15:21:53.242Z,8.37
2018-06-22T15:24:22.036Z,8.13
2018-06-22T15:26:51.042Z,8.43
2018-06-22T15:29:20.002Z,8.17
2018-06-22T15:31:49.241Z,8.13
2018-06-22T15:34:23.071Z,8.63
2018-06-22T15:36:56.844Z,8.60
2018-06-22T15:39:30.719Z,8.73
2018-06-22T15:42:04.562Z,8.37
2018-06-22T15:44:38.866Z,8.70
2018-06-22T15:47:12.747Z,8.63
2018-06-22T15:49:46.622Z,8.70
2018-06-22T15:52:20.461Z,8.30
2018-06-22T15:54:55.023Z,8.60
2018-06-22T15:57:24.113Z,8.47
2018-06-22T15:59:52.799Z,8.13
2018-06-22T16:02:27.097Z,8.80
2018-06-22T16:04:58.429Z,8.80
2018-06-22T16:07:27.433Z,8.60
2018-06-22T16:10:01.245Z,8.20
2018-06-22T16:12:36.551Z,8.20
2018-06-22T16:15:12.626Z,8.20
2018-06-22T16:17:46.390Z,8.30
2018-06-22T16:20:20.671Z,8.90
2018-06-22T16:22:54.560Z,8.70
2018-06-22T16:25:28.351Z,8.90
2018-06-22T16:27:59.727Z,8.60
2018-06-22T16:30:28.969Z,8.13
2018-06-22T16:32:59.244Z,8.50
2018-06-22T16:35:29.629Z,8.90
2018-06-22T16:37:58.621Z,8.87
2018-06-22T16:40:27.269Z,8.93
2018-06-22T16:42:55.949Z,9.33
2018-06-22T16:45:24.871Z,8.93
2018-06-22T16:47:53.472Z,8.87
2018-06-22T16:50:22.271Z,9.10
2018-06-22T16:52:51.209Z,9.00
2018-06-22T16:55:19.908Z,9.00
2018-06-22T16:57:48.595Z,8.80
2018-06-22T17:00:17.255Z,8.80
2018-06-22T17:02:46.000Z,8.57
2018-06-22T17:05:14.846Z,8.90
2018-06-22T17:07:48.513Z,8.47
2018-06-22T17:11:22.304Z,9.03
2018-06-22T17:13:56.025Z,9.00
2018-06-22T17:16:30.080Z,9.30
2018-06-22T17:19:00.094Z,8.63
2018-06-22T17:21:29.758Z,8.33
2018-06-22T17:23:58.484Z,8.30
2018-06-22T17:26:27.086Z,8.70
2018-06-22T17:29:01.666Z,9.23
2018-06-22T17:31:31.125Z,8.50
2018-06-22T17:33:59.858Z,8.80
2018-06-22T17:36:28.836Z,8.40
2018-06-22T17:38:57.782Z,8.40
2018-06-22T17:41:26.469Z,8.50
2018-06-22T17:43:55.106Z,8.63
2018-06-22T17:46:23.804Z,9.17
2018-06-22T17:48:52.830Z,9.00
2018-06-22T17:51:21.498Z,8.90
2018-06-22T17:53:50.287Z,9.07
2018-06-22T17:56:32.313Z,8.83
2018-06-22T17:59:06.225Z,9.50
2018-06-22T18:01:40.100Z,9.00
2018-06-22T18:04:14.043Z,9.90
2018-06-22T18:06:47.862Z,9.57
2018-06-22T18:09:21.704Z,9.27
2018-06-22T18:11:55.481Z,9.00
2018-06-22T18:14:24.278Z,9.13
2018-06-22T18:16:52.922Z,9.60
2018-06-22T18:19:21.579Z,12.47
2018-06-22T18:21:50.539Z,9.47
2018-06-22T18:24:19.194Z,9.33
2018-06-22T18:26:47.950Z,9.40
2018-06-22T18:29:16.619Z,9.30
2018-06-22T18:31:45.241Z,9.40
2018-06-22T18:34:13.920Z,9.83
2018-06-22T18:36:42.589Z,9.60
2018-06-22T18:39:12.862Z,8.77
2018-06-22T18:41:41.832Z,9.10
2018-06-22T18:44:14.592Z,8.70
2018-06-22T18:46:43.434Z,9.40
2018-06-22T18:49:12.242Z,9.67
2018-06-22T18:51:41.196Z,9.83
2018-06-22T18:54:15.144Z,9.40
2018-06-22T18:56:49.130Z,9.63
2018-06-22T18:59:22.852Z,9.60
2018-06-22T19:01:56.582Z,8.70
2018-06-22T19:04:25.381Z,9.70
2018-06-22T19:06:54.118Z,9.57
2018-06-22T19:09:22.989Z,9.10
2018-06-22T19:11:51.845Z,10.43
2018-06-22T19:14:20.513Z,10.23
2018-06-22T19:16:49.625Z,8.70
2018-06-22T19:19:18.661Z,9.67
2018-06-22T19:21:48.693Z,9.47
2018-06-22T19:24:21.064Z,8.63
2018-06-22T19:26:51.190Z,8.67
2018-06-22T19:29:21.367Z,9.30
2018-06-22T19:31:50.527Z,10.20
2018-06-22T19:34:23.400Z,9.43
2018-06-22T19:36:52.218Z,9.07
2018-06-22T19:39:20.949Z,9.40
2018-06-22T19:41:49.653Z,8.57
2018-06-22T19:44:24.449Z,9.23
2018-06-22T19:46:58.869Z,9.30
2018-06-22T19:50:34.610Z,9.20
2018-06-22T19:53:09.199Z,8.90
2018-06-22T19:55:38.367Z,8.87
2018-06-22T19:58:07.363Z,9.70
2018-06-22T20:00:37.315Z,9.37
2018-06-22T20:03:06.032Z,10.30
2018-06-22T20:05:35.095Z,11.67
2018-06-22T20:08:04.030Z,10.00
2018-06-22T20:10:32.960Z,9.90
2018-06-22T20:13:01.816Z,9.17
2018-06-22T20:15:30.921Z,10.60
2018-06-22T20:17:59.851Z,10.20
2018-06-22T20:20:28.948Z,10.00
2018-06-22T20:22:57.752Z,9.03
2018-06-22T20:25:31.583Z,9.13
2018-06-22T20:28:00.555Z,9.77
2018-06-22T20:30:29.871Z,9.27
2018-06-22T20:32:58.551Z,9.47
2018-06-22T20:35:32.973Z,9.00
2018-06-22T20:38:08.828Z,9.10
2018-06-22T20:40:43.030Z,10.33
2018-06-22T20:43:16.938Z,9.27
2018-06-22T20:45:52.277Z,9.03
2018-06-22T20:48:27.080Z,9.60
2018-06-22T20:50:55.936Z,10.07
2018-06-22T20:53:25.196Z,9.30
2018-06-22T20:55:55.636Z,9.73
2018-06-22T20:58:24.341Z,9.20
2018-06-22T21:00:53.097Z,9.53
2018-06-22T21:03:22.296Z,9.50
2018-06-22T21:05:51.158Z,9.10
2018-06-22T21:08:21.334Z,9.73
2018-06-22T21:10:50.482Z,9.00
2018-06-22T21:13:19.527Z,8.73
2018-06-22T21:15:49.039Z,9.90
2018-06-22T21:18:18.331Z,9.40
2018-06-22T21:20:52.189Z,9.50
2018-06-22T21:23:20.932Z,9.60
2018-06-22T21:25:49.761Z,9.60
2018-06-22T21:30:26.054Z,10.50
2018-06-22T21:32:59.949Z,9.50
2018-06-22T21:35:34.123Z,9.10
2018-06-22T21:38:08.179Z,9.60
2018-06-22T21:40:36.855Z,8.87
2018-06-22T21:43:07.457Z,9.60
2018-06-22T21:45:36.058Z,9.00
2018-06-22T21:48:04.788Z,10.40
2018-06-22T21:50:33.704Z,10.27
2018-06-22T21:53:03.009Z,9.73
2018-06-22T21:55:31.893Z,9.10
2018-06-22T21:58:00.656Z,9.20
2018-06-22T22:00:31.736Z,9.20
2018-06-22T22:03:02.157Z,9.90
2018-06-22T22:05:32.113Z,9.47
2018-06-22T22:08:00.977Z,9.40
2018-06-22T22:10:34.760Z,9.47
2018-06-22T22:13:03.455Z,9.10
2018-06-22T22:15:32.108Z,9.10
2018-06-22T22:18:02.335Z,9.73
2018-06-22T22:20:31.524Z,9.30
2018-06-22T22:23:00.978Z,9.13
2018-06-22T22:25:29.867Z,9.70
2018-06-22T22:27:58.478Z,9.23
2018-06-22T22:30:27.337Z,8.90
2018-06-22T22:32:56.238Z,9.00
2018-06-22T22:35:28.300Z,8.93
2018-06-22T22:37:56.884Z,8.83
2018-06-22T22:40:27.119Z,10.30
2018-06-22T22:42:55.720Z,10.43
2018-06-22T22:45:24.418Z,8.93
2018-06-22T22:47:53.061Z,9.10
2018-06-22T22:50:21.710Z,9.40
2018-06-22T22:52:50.665Z,9.30
2018-06-22T22:55:19.508Z,9.23
2018-06-22T22:57:48.433Z,8.40
2018-06-22T23:00:17.055Z,8.60
2018-06-22T23:02:46.689Z,9.50
2018-06-22T23:05:15.858Z,9.20
2018-06-22T23:07:44.580Z,9.37
2018-06-22T23:10:13.383Z,8.67
2018-06-22T23:12:43.830Z,9.10
2018-06-22T23:15:13.181Z,9.10
2018-06-22T23:17:42.190Z,8.70
2018-06-22T23:20:12.630Z,8.93
2018-06-22T23:22:52.600Z,9.00
2018-06-22T23:25:22.254Z,8.60
2018-06-22T23:27:51.502Z,9.63
2018-06-22T23:30:21.053Z,8.70
2018-06-22T23:32:50.511Z,9.20
2018-06-22T23:35:23.269Z,8.63
2018-06-22T23:37:53.425Z,8.97
2018-06-22T23:40:23.393Z,8.90
2018-06-22T23:42:52.541Z,8.83
2018-06-22T23:45:21.846Z,9.00
2018-06-22T23:47:52.099Z,8.80
2018-06-22T23:50:21.450Z,8.40
2018-06-22T23:52:50.897Z,9.30
2018-06-22T23:55:19.648Z,8.87
2018-06-22T23:57:49.785Z,8.63
